createdAt,value
2023-01-18T00:00:17.384Z,97402.31
2023-01-18T00:05:19.600Z,97396.41
2023-01-18T00:10:22.543Z,97388.53
2023-01-18T00:15:23.971Z,97390.19
2023-01-18T00:20:27.188Z,97386.88
2023-01-18T00:25:29.877Z,97388.25
2023-01-18T00:30:32.302Z,97391.28
2023-01-18T00:35:33.704Z,97391.16
2023-01-18T00:40:36.013Z,97394.09
2023-01-18T00:45:37.375Z,97386.59
2023-01-18T00:50:39.117Z,97383.88
2023-01-18T00:55:41.693Z,97384.94
2023-01-18T01:00:44.190Z,97381.63
2023-01-18T01:06:04.368Z,97387.16
2023-01-18T01:11:08.946Z,97389.03
2023-01-18T01:16:30.425Z,97390.59
2023-01-18T01:21:50.350Z,97402.78
2023-01-18T01:26:52.296Z,97399.78
2023-01-18T01:31:53.717Z,97408.31
2023-01-18T01:36:58.471Z,97415.56
2023-01-18T01:41:59.866Z,97416.50
2023-01-18T01:47:28.026Z,97419.28
2023-01-18T01:52:36.642Z,97425.47
2023-01-18T01:57:43.216Z,97435.19
2023-01-18T02:02:51.150Z,97431.44
2023-01-18T02:07:54.331Z,97446.72
2023-01-18T02:12:59.528Z,97437.16
2023-01-18T02:18:16.044Z,97450.25
2023-01-18T02:24:12.746Z,97454.25
2023-01-18T02:29:17.332Z,97463.78
2023-01-18T02:34:39.166Z,97474.72
2023-01-18T02:39:43.485Z,97475.81
2023-01-18T02:45:05.615Z,97474.25
2023-01-18T02:50:10.122Z,97486.50
2023-01-18T02:55:28.536Z,97490.13
2023-01-18T03:00:33.801Z,97498.59
2023-01-18T03:05:37.622Z,97496.06
2023-01-18T03:10:47.699Z,97506.56
2023-01-18T03:15:55.922Z,97508.69
2023-01-18T03:20:57.412Z,97507.28
2023-01-18T03:26:00.282Z,97514.47
2023-01-18T03:31:27.318Z,97519.03
2023-01-18T03:36:33.041Z,97528.97
2023-01-18T03:41:40.048Z,97538.09
2023-01-18T03:46:43.720Z,97543.28
2023-01-18T03:52:08.754Z,97551.00
2023-01-18T03:57:19.393Z,97556.00
2023-01-18T04:02:21.688Z,97560.25
2023-01-18T04:07:26.171Z,97565.22
2023-01-18T04:12:27.809Z,97574.22
2023-01-18T04:17:29.568Z,97574.34
2023-01-18T04:22:30.886Z,97582.38
2023-01-18T04:27:32.240Z,97587.25
2023-01-18T04:32:33.816Z,97594.97
2023-01-18T04:37:38.055Z,97592.47
2023-01-18T04:42:39.422Z,97596.34
2023-01-18T04:47:40.780Z,97599.38
2023-01-18T04:52:42.175Z,97606.44
2023-01-18T04:57:44.117Z,97608.50
2023-01-18T05:02:45.487Z,97615.81
2023-01-18T05:07:46.911Z,97625.09
2023-01-18T05:12:48.654Z,97633.41
2023-01-18T05:17:50.028Z,97641.16
2023-01-18T05:22:51.352Z,97652.19
2023-01-18T05:27:52.842Z,97660.78
2023-01-18T05:32:54.151Z,97669.09
2023-01-18T05:37:55.876Z,97684.31
2023-01-18T05:42:57.531Z,97684.84
2023-01-18T05:47:59.921Z,97686.22
2023-01-18T05:53:01.653Z,97685.13
2023-01-18T05:58:03.943Z,97697.56
2023-01-18T06:03:05.338Z,97709.75
2023-01-18T06:08:06.716Z,97712.50
2023-01-18T06:13:08.229Z,97727.31
2023-01-18T06:18:09.571Z,97725.22
2023-01-18T06:23:10.981Z,97718.84
2023-01-18T06:28:12.412Z,97719.69
2023-01-18T06:33:15.132Z,97749.56
2023-01-18T06:38:16.603Z,97699.31
2023-01-18T06:43:17.921Z,97740.41
2023-01-18T06:48:19.253Z,97767.00
2023-01-18T06:53:20.638Z,97779.72
2023-01-18T06:58:22.048Z,97787.56
2023-01-18T07:03:24.236Z,97792.09
2023-01-18T07:08:30.968Z,97807.50
2023-01-18T07:13:32.413Z,97808.13
2023-01-18T07:18:34.454Z,97821.78
2023-01-18T07:23:38.295Z,97831.94
2023-01-18T07:28:40.425Z,97846.44
2023-01-18T07:33:41.815Z,97856.81
2023-01-18T07:38:43.991Z,97850.47
2023-01-18T07:43:46.002Z,97862.69
2023-01-18T07:48:48.378Z,97887.34
2023-01-18T07:53:54.680Z,97893.47
2023-01-18T07:58:56.204Z,97893.31
2023-01-18T08:03:57.519Z,97902.31
2023-01-18T08:08:59.594Z,97920.88
2023-01-18T08:14:01.004Z,97926.41
2023-01-18T08:19:02.488Z,97934.97
2023-01-18T08:24:03.911Z,97931.69
2023-01-18T08:29:06.362Z,97939.44
2023-01-18T08:34:07.657Z,97950.41
2023-01-18T08:39:09.069Z,97941.97
2023-01-18T08:44:10.381Z,97968.16
2023-01-18T08:49:11.880Z,97967.38
2023-01-18T08:54:13.230Z,97980.25
2023-01-18T08:59:14.663Z,97996.63
2023-01-18T09:04:16.075Z,98009.38
2023-01-18T09:09:17.408Z,98015.72
2023-01-18T09:14:18.927Z,98026.84
2023-01-18T09:19:20.351Z,98036.56
2023-01-18T09:24:21.876Z,98004.66
2023-01-18T09:29:23.403Z,98038.50
2023-01-18T09:34:24.788Z,98059.44
2023-01-18T09:39:26.372Z,98063.31
2023-01-18T09:44:48.307Z,98072.50
2023-01-18T09:49:58.324Z,98083.19
2023-01-18T09:55:22.639Z,98092.59
2023-01-18T10:00:37.116Z,98073.34
2023-01-18T10:05:47.251Z,98086.94
2023-01-18T10:11:09.699Z,98080.38
2023-01-18T10:16:15.751Z,98106.19
2023-01-18T10:21:34.088Z,98108.88
2023-01-18T10:26:38.660Z,98113.50
2023-01-18T10:32:02.877Z,98120.06
2023-01-18T10:37:17.047Z,98088.84
2023-01-18T10:42:48.994Z,98132.53
2023-01-18T10:47:55.891Z,98133.44
2023-01-18T10:52:57.519Z,98135.72
2023-01-18T10:57:59.506Z,98138.84
2023-01-18T11:03:03.839Z,98139.63
2023-01-18T11:08:21.925Z,98137.47
2023-01-18T11:13:25.662Z,98140.47
2023-01-18T11:18:29.575Z,98142.09
2023-01-18T11:23:38.286Z,98149.16
2023-01-18T11:29:00.003Z,98153.06
2023-01-18T11:34:08.256Z,98119.75
2023-01-18T11:39:26.331Z,98151.94
2023-01-18T11:44:34.766Z,98152.00
2023-01-18T11:49:43.030Z,98141.59
2023-01-18T11:54:58.567Z,98166.81
2023-01-18T12:00:00.456Z,98162.25
2023-01-18T12:05:44.958Z,98174.03
2023-01-18T12:11:19.916Z,98182.56
2023-01-18T12:16:24.478Z,98187.03
2023-01-18T12:21:58.551Z,98194.19
2023-01-18T12:27:12.310Z,98201.88
2023-01-18T12:32:51.990Z,98208.03
2023-01-18T12:38:13.553Z,98210.28
2023-01-18T12:43:33.673Z,98217.84
2023-01-18T12:48:56.436Z,98216.34
2023-01-18T12:54:20.722Z,98231.00
2023-01-18T12:59:32.408Z,98232.44
2023-01-18T13:04:46.417Z,98236.78
2023-01-18T13:09:49.870Z,98253.47
2023-01-18T13:15:02.086Z,98251.78
2023-01-18T13:20:09.947Z,98264.25
2023-01-18T13:25:26.357Z,98266.97
2023-01-18T13:30:33.722Z,98267.94
2023-01-18T13:35:36.098Z,98255.91
2023-01-18T13:40:41.891Z,98219.84
2023-01-18T13:46:02.261Z,98292.13
2023-01-18T13:51:03.849Z,98283.94
2023-01-18T13:56:08.636Z,98296.34
2023-01-18T14:01:19.600Z,98306.94
2023-01-18T14:06:24.278Z,98326.00
2023-01-18T14:11:30.445Z,98307.59
2023-01-18T14:16:35.635Z,98334.19
2023-01-18T14:21:59.019Z,98355.28
2023-01-18T14:27:01.502Z,98357.88
2023-01-18T14:32:06.693Z,98368.53
2023-01-18T14:37:29.486Z,98377.63
2023-01-18T14:42:34.790Z,98388.66
2023-01-18T14:47:37.580Z,98353.59
2023-01-18T14:52:39.877Z,98393.66
2023-01-18T14:57:41.276Z,98422.25
2023-01-18T15:02:43.755Z,98433.94
2023-01-18T15:07:50.040Z,98437.53
2023-01-18T15:12:57.664Z,98443.50
2023-01-18T15:18:10.509Z,98445.81
2023-01-18T15:23:12.699Z,98379.53
2023-01-18T15:28:23.646Z,98454.06
2023-01-18T15:33:27.337Z,98460.69
2023-01-18T15:38:29.106Z,98479.63
2023-01-18T15:43:36.221Z,98483.53
2023-01-18T15:48:48.309Z,98488.09
2023-01-18T15:53:55.815Z,98509.06
2023-01-18T15:59:00.749Z,98489.22
2023-01-18T16:04:19.608Z,98512.47
2023-01-18T16:09:22.987Z,98528.69
2023-01-18T16:14:38.295Z,98533.31
2023-01-18T16:19:48.875Z,98541.09
2023-01-18T16:24:55.665Z,98556.34
2023-01-18T16:29:59.940Z,98570.28
2023-01-18T16:35:13.892Z,98564.59
2023-01-18T16:40:21.971Z,98589.06
2023-01-18T16:45:23.713Z,98592.50
2023-01-18T16:50:25.201Z,98592.63
2023-01-18T16:55:27.157Z,98600.34
2023-01-18T17:00:35.726Z,98601.31
2023-01-18T17:05:37.193Z,98600.34
2023-01-18T17:10:42.237Z,98626.44
2023-01-18T17:15:45.532Z,98637.91
2023-01-18T17:20:47.059Z,98634.81
2023-01-18T17:25:48.928Z,98642.47
2023-01-18T17:30:50.440Z,98638.81
2023-01-18T17:35:53.651Z,98657.00
2023-01-18T17:40:55.041Z,98648.34
2023-01-18T17:46:01.585Z,98657.34
2023-01-18T17:51:07.692Z,98670.25
2023-01-18T17:56:15.161Z,98685.56
2023-01-18T18:01:17.633Z,98695.38
2023-01-18T18:06:30.285Z,98705.28
2023-01-18T18:11:32.614Z,98699.59
2023-01-18T18:16:38.514Z,98715.88
2023-01-18T18:21:47.567Z,98719.72
2023-01-18T18:26:49.206Z,98710.50
2023-01-18T18:31:50.983Z,98717.78
2023-01-18T18:36:52.607Z,98743.25
2023-01-18T18:41:54.186Z,98731.22
2023-01-18T18:46:55.546Z,98744.03
2023-01-18T18:51:59.978Z,98744.03
2023-01-18T18:57:03.241Z,98741.81
2023-01-18T19:02:04.880Z,98754.00
2023-01-18T19:07:07.221Z,98760.84
2023-01-18T19:12:08.579Z,98771.69
2023-01-18T19:17:11.671Z,98769.53
2023-01-18T19:22:15.020Z,98769.63
2023-01-18T19:27:16.614Z,98753.84
2023-01-18T19:32:17.954Z,98771.09
2023-01-18T19:37:19.640Z,98779.94
2023-01-18T19:42:21.250Z,98787.56
2023-01-18T19:47:22.851Z,98785.88
2023-01-18T19:52:24.414Z,98779.13
2023-01-18T19:57:26.543Z,98792.66
2023-01-18T20:02:28.320Z,98809.28
2023-01-18T20:07:30.082Z,98816.41
2023-01-18T20:12:32.820Z,98822.53
2023-01-18T20:17:34.557Z,98826.31
2023-01-18T20:22:36.059Z,98846.16
2023-01-18T20:27:37.486Z,98846.03
2023-01-18T20:32:38.836Z,98841.00
2023-01-18T20:37:40.228Z,98827.44
2023-01-18T20:42:41.668Z,98832.16
2023-01-18T20:47:43.266Z,98866.59
2023-01-18T20:52:45.423Z,98871.22
2023-01-18T20:57:50.702Z,98876.56
2023-01-18T21:02:52.162Z,98862.59
2023-01-18T21:07:53.656Z,98873.47
2023-01-18T21:12:55.042Z,98885.25
2023-01-18T21:17:56.503Z,98903.06
2023-01-18T21:22:59.221Z,98896.22
2023-01-18T21:28:01.124Z,98917.34
2023-01-18T21:33:02.762Z,98912.63
2023-01-18T21:38:04.774Z,98920.94
2023-01-18T21:43:24.368Z,98917.69
2023-01-18T21:48:27.717Z,98899.56
2023-01-18T21:53:47.839Z,98917.63
2023-01-18T21:58:56.080Z,98938.91
2023-01-18T22:04:16.163Z,98929.78
2023-01-18T22:09:17.511Z,98942.78
2023-01-18T22:14:19.144Z,98947.84
2023-01-18T22:19:20.500Z,98946.53
2023-01-18T22:24:21.889Z,98965.31
2023-01-18T22:29:23.181Z,98945.59
2023-01-18T22:34:24.561Z,98957.78
2023-01-18T22:39:26.010Z,98982.09
2023-01-18T22:44:27.590Z,98983.78
2023-01-18T22:49:28.916Z,98981.06
2023-01-18T22:54:30.297Z,98981.63
2023-01-18T22:59:31.590Z,98989.22
2023-01-18T23:04:34.202Z,98988.63
2023-01-18T23:09:35.727Z,98992.94
2023-01-18T23:14:55.810Z,98975.84
2023-01-18T23:19:57.196Z,98998.00
2023-01-18T23:24:58.809Z,98984.34
2023-01-18T23:30:00.588Z,98988.25
2023-01-18T23:35:01.981Z,98987.47
2023-01-18T23:40:22.522Z,99016.69
2023-01-18T23:45:42.984Z,99019.50
2023-01-18T23:51:02.933Z,99018.56
2023-01-18T23:56:04.360Z,99027.16
